Time;durP1;ratioP1;P1;durP2;ratioP2;P2;SDS_P1;SDS_P2;PMS_P1;PMS_P2;Temp;Humidity;BMP_temperature;BMP_pressure;BME280_temperature;BME280_humidity;BME280_pressure;Samples;Min_cycle;Max_cycle;Signal;HPM_P1;HPM_P2
2021/09/25 00:00:07;;;;;;;63.50;9.40;;;;;;;;;;5106800;27;20410;-64
2021/09/25 00:02:34;;;;;;;70.65;10.13;;;;;;;;;;5106362;27;20579;-64
2021/09/25 00:05:02;;;;;;;67.72;10.57;;;;;;;;;;5104844;28;20051;-64
2021/09/25 00:07:28;;;;;;;66.88;9.93;;;;;;;;;;5103911;28;20152;-64
2021/09/25 00:09:55;;;;;;;63.85;10.77;;;;;;;;;;5103125;27;20147;-63
2021/09/25 00:12:22;;;;;;;65.38;9.73;;;;;;;;;;5106499;27;20067;-64
2021/09/25 00:14:48;;;;;;;64.70;9.97;;;;;;;;;;5099147;27;20079;-64
2021/09/25 00:17:15;;;;;;;68.72;11.15;;;;;;;;;;5100456;28;20133;-64
2021/09/25 00:19:42;;;;;;;64.80;9.48;;;;;;;;;;5100884;27;20079;-64
2021/09/25 00:22:08;;;;;;;66.53;10.98;;;;;;;;;;5101974;28;20159;-64
2021/09/25 00:24:35;;;;;;;70.38;10.15;;;;;;;;;;5103805;28;20135;-64
2021/09/25 00:27:01;;;;;;;70.40;10.50;;;;;;;;;;5106976;28;20142;-64
2021/09/25 00:29:28;;;;;;;64.65;9.55;;;;;;;;;;5106107;27;20044;-63
2021/09/25 00:31:54;;;;;;;62.33;9.75;;;;;;;;;;5103063;27;20048;-63
2021/09/25 00:34:21;;;;;;;63.92;10.00;;;;;;;;;;5103746;27;20040;-63
2021/09/25 00:36:48;;;;;;;74.88;10.02;;;;;;;;;;5099183;27;20083;-64
2021/09/25 00:39:14;;;;;;;76.32;11.32;;;;;;;;;;5104026;27;20070;-64
2021/09/25 00:41:41;;;;;;;66.50;9.88;;;;;;;;;;5107119;28;20051;-64
2021/09/25 00:44:08;;;;;;;70.35;11.63;;;;;;;;;;5104009;28;20056;-64
2021/09/25 00:46:34;;;;;;;78.00;9.88;;;;;;;;;;5095060;28;20082;-64
2021/09/25 00:49:01;;;;;;;68.35;9.20;;;;;;;;;;5100885;28;20134;-63
2021/09/25 00:51:27;;;;;;;67.32;10.00;;;;;;;;;;5101969;27;20510;-64
2021/09/25 00:53:54;;;;;;;72.93;11.45;;;;;;;;;;5102955;27;20139;-63
2021/09/25 00:56:22;;;;;;;64.50;10.32;;;;;;;;;;5097912;28;20101;-64
2021/09/25 00:58:48;;;;;;;76.95;10.82;;;;;;;;;;5098353;28;20078;-64
2021/09/25 01:01:15;;;;;;;75.65;10.63;;;;;;;;;;5099600;27;20606;-64
2021/09/25 01:03:42;;;;;;;77.43;11.55;;;;;;;;;;5103754;28;20490;-64
2021/09/25 01:06:09;;;;;;;71.25;10.80;;;;;;;;;;5097655;28;20043;-64
2021/09/25 01:08:35;;;;;;;61.47;11.00;;;;;;;;;;5102266;28;20131;-64
2021/09/25 01:11:01;;;;;;;72.28;10.50;;;;;;;;;;5096286;28;20087;-63
2021/09/25 01:13:30;;;;;;;78.90;11.95;;;;;;;;;;5098559;28;20127;-64
2021/09/25 01:15:56;;;;;;;79.90;11.32;;;;;;;;;;5104874;27;20419;-64
2021/09/25 01:18:24;;;;;;;;;;;;;;;;;;5099769;28;20044;-64
2021/09/25 01:20:50;;;;;;;66.75;11.63;;;;;;;;;;5099895;28;19970;-64
2021/09/25 01:23:17;;;;;;;67.47;10.93;;;;;;;;;;5104244;27;20067;-64
2021/09/25 01:25:44;;;;;;;80.65;10.52;;;;;;;;;;5101963;27;20079;-64
2021/09/25 01:28:10;;;;;;;73.85;11.35;;;;;;;;;;5104387;28;20587;-64
2021/09/25 01:30:36;;;;;;;76.38;13.07;;;;;;;;;;5099187;28;20140;-64
2021/09/25 01:33:03;;;;;;;64.45;10.52;;;;;;;;;;5101677;28;20573;-64
2021/09/25 01:35:30;;;;;;;70.22;10.55;;;;;;;;;;5100717;28;20184;-64
2021/09/25 01:37:56;;;;;;;72.90;10.50;;;;;;;;;;5100290;28;20040;-64
2021/09/25 01:40:23;;;;;;;58.93;9.67;;;;;;;;;;5104271;27;20485;-64
2021/09/25 01:42:49;;;;;;;67.38;10.00;;;;;;;;;;5102642;27;20449;-64
2021/09/25 01:45:16;;;;;;;79.60;10.13;;;;;;;;;;5100414;28;20150;-64
2021/09/25 01:47:42;;;;;;;71.45;10.27;;;;;;;;;;5100825;27;20143;-64
2021/09/25 01:50:11;;;;;;;87.75;10.63;;;;;;;;;;5102762;28;20124;-64
2021/09/25 01:52:37;;;;;;;72.93;10.55;;;;;;;;;;5092817;28;20044;-64
2021/09/25 01:55:05;;;;;;;85.32;10.77;;;;;;;;;;5104795;27;20683;-64
2021/09/25 01:57:32;;;;;;;71.78;10.77;;;;;;;;;;5103085;28;20071;-64
2021/09/25 01:59:58;;;;;;;70.17;12.13;;;;;;;;;;5097593;28;20131;-64
2021/09/25 02:02:24;;;;;;;63.35;9.95;;;;;;;;;;5101834;27;20833;-64
2021/09/25 02:04:51;;;;;;;71.35;9.88;;;;;;;;;;5098867;28;20048;-64
2021/09/25 02:07:19;;;;;;;66.47;10.38;;;;;;;;;;5080093;28;20079;-64
2021/09/25 02:09:46;;;;;;;68.75;9.60;;;;;;;;;;5100505;28;20520;-64
2021/09/25 02:12:12;;;;;;;82.10;10.40;;;;;;;;;;5097891;28;20135;-64
2021/09/25 02:14:39;;;;;;;62.05;10.23;;;;;;;;;;5098640;28;20093;-64
2021/09/25 02:17:07;;;;;;;69.32;10.88;;;;;;;;;;5096615;28;20075;-64
2021/09/25 02:19:34;;;;;;;78.10;10.18;;;;;;;;;;5101211;28;20480;-63
2021/09/25 02:22:00;;;;;;;58.88;9.95;;;;;;;;;;5102374;27;20494;-64
2021/09/25 02:24:27;;;;;;;76.72;10.45;;;;;;;;;;5097267;28;20517;-64
2021/09/25 02:26:53;;;;;;;66.55;11.43;;;;;;;;;;5100880;28;20534;-64
2021/09/25 02:29:20;;;;;;;74.07;10.45;;;;;;;;;;5094417;28;20476;-64
2021/09/25 02:31:47;;;;;;;;;;;;;;;;;;5104126;28;20114;-64
2021/09/25 02:34:13;;;;;;;69.47;10.57;;;;;;;;;;5101628;28;19966;-64
2021/09/25 02:36:40;;;;;;;62.38;10.20;;;;;;;;;;5093223;28;20135;-64
2021/09/25 02:39:06;;;;;;;71.13;10.02;;;;;;;;;;5098579;28;20539;-64
2021/09/25 02:41:33;;;;;;;63.47;10.13;;;;;;;;;;5097446;28;20126;-64
2021/09/25 02:43:59;;;;;;;67.22;9.98;;;;;;;;;;5097681;28;20567;-64
2021/09/25 02:46:26;;;;;;;83.78;10.95;;;;;;;;;;5099981;28;20093;-64
2021/09/25 02:48:53;;;;;;;64.05;10.10;;;;;;;;;;5099278;28;20040;-64
2021/09/25 02:51:20;;;;;;;71.82;10.13;;;;;;;;;;5095109;28;20127;-64
2021/09/25 02:53:46;;;;;;;63.93;9.33;;;;;;;;;;5101170;28;20582;-64
2021/09/25 02:56:13;;;;;;;67.32;9.82;;;;;;;;;;5097863;28;20511;-64
2021/09/25 02:58:39;;;;;;;73.72;11.38;;;;;;;;;;5098509;28;20126;-64
2021/09/25 03:01:08;;;;;;;64.70;9.98;;;;;;;;;;5097269;28;20126;-64
2021/09/25 03:03:34;;;;;;;59.00;8.70;;;;;;;;;;5101438;28;20495;-64
2021/09/25 03:06:01;;;;;;;59.20;9.60;;;;;;;;;;5104447;28;20296;-64
2021/09/25 03:08:28;;;;;;;67.95;9.10;;;;;;;;;;5104126;28;20104;-64
2021/09/25 03:10:54;;;;;;;69.50;9.68;;;;;;;;;;5102179;28;20122;-64
2021/09/25 03:13:21;;;;;;;61.15;9.80;;;;;;;;;;5103213;27;20040;-64
2021/09/25 03:15:49;;;;;;;71.55;9.50;;;;;;;;;;5104150;28;20113;-64
2021/09/25 03:18:15;;;;;;;70.97;10.93;;;;;;;;;;5099253;28;20107;-64
2021/09/25 03:20:42;;;;;;;65.50;9.52;;;;;;;;;;5103363;28;20075;-64
2021/09/25 03:23:08;;;;;;;59.40;8.98;;;;;;;;;;5101823;27;20123;-64
2021/09/25 03:25:35;;;;;;;62.85;8.43;;;;;;;;;;5101884;28;20080;-64
2021/09/25 03:28:01;;;;;;;59.88;8.30;;;;;;;;;;5101898;27;20289;-64
2021/09/25 03:30:27;;;;;;;63.75;8.75;;;;;;;;;;5099869;28;20118;-64
2021/09/25 03:32:54;;;;;;;55.92;8.85;;;;;;;;;;5106273;27;20529;-64
2021/09/25 03:35:20;;;;;;;57.25;8.60;;;;;;;;;;5100186;28;20040;-64
2021/09/25 03:37:47;;;;;;;55.95;9.32;;;;;;;;;;5099744;28;20485;-64
2021/09/25 03:40:14;;;;;;;48.67;8.85;;;;;;;;;;5106386;28;20044;-64
2021/09/25 03:42:40;;;;;;;57.05;8.88;;;;;;;;;;5100550;28;20135;-64
2021/09/25 03:45:07;;;;;;;47.63;7.40;;;;;;;;;;5115960;27;20082;-64
2021/09/25 03:47:34;;;;;;;46.03;8.70;;;;;;;;;;5123689;27;20849;-64
2021/09/25 03:50:02;;;;;;;62.58;8.20;;;;;;;;;;5124182;27;20126;-64
2021/09/25 03:52:29;;;;;;;63.95;8.48;;;;;;;;;;5130030;27;20047;-64
2021/09/25 03:54:55;;;;;;;60.92;6.90;;;;;;;;;;5123206;27;20161;-64
2021/09/25 03:57:21;;;;;;;59.45;8.90;;;;;;;;;;5125524;27;20460;-64
2021/09/25 03:59:48;;;;;;;50.92;7.45;;;;;;;;;;5120214;27;20067;-64
2021/09/25 04:02:15;;;;;;;49.22;7.93;;;;;;;;;;5124667;27;20086;-66
2021/09/25 04:04:41;;;;;;;60.65;8.48;;;;;;;;;;5121481;27;20057;-66
2021/09/25 04:07:08;;;;;;;58.40;8.03;;;;;;;;;;5118383;27;20078;-66
2021/09/25 04:09:35;;;;;;;45.42;6.85;;;;;;;;;;5127909;27;20364;-67
2021/09/25 04:12:01;;;;;;;51.38;6.88;;;;;;;;;;5130559;27;20053;-66
2021/09/25 04:14:28;;;;;;;57.13;7.07;;;;;;;;;;5122510;27;20039;-67
2021/09/25 04:16:54;;;;;;;54.83;6.90;;;;;;;;;;5128300;27;20083;-66
2021/09/25 04:19:21;;;;;;;53.47;7.38;;;;;;;;;;5129228;27;20476;-66
2021/09/25 04:21:48;;;;;;;60.35;7.90;;;;;;;;;;5122026;27;20074;-66
2021/09/25 04:24:15;;;;;;;61.35;7.90;;;;;;;;;;5125136;27;20123;-66
2021/09/25 04:26:41;;;;;;;39.25;6.57;;;;;;;;;;5127159;27;20146;-66
2021/09/25 04:29:08;;;;;;;45.63;6.88;;;;;;;;;;5123888;27;20078;-66
2021/09/25 04:31:35;;;;;;;45.03;6.93;;;;;;;;;;5122979;27;20079;-66
2021/09/25 04:34:02;;;;;;;38.42;6.40;;;;;;;;;;5126032;27;20200;-66
2021/09/25 04:36:29;;;;;;;50.65;7.28;;;;;;;;;;5118459;27;20135;-67
2021/09/25 04:38:55;;;;;;;57.03;7.38;;;;;;;;;;5127084;27;20146;-66
2021/09/25 04:41:22;;;;;;;51.07;7.80;;;;;;;;;;5122388;27;20130;-66
2021/09/25 04:43:49;;;;;;;43.08;7.57;;;;;;;;;;5120104;27;20723;-67
2021/09/25 04:46:16;;;;;;;41.50;5.68;;;;;;;;;;5106089;27;20143;-67
2021/09/25 04:48:43;;;;;;;42.33;6.28;;;;;;;;;;5102225;28;20043;-66
2021/09/25 04:51:09;;;;;;;47.50;6.82;;;;;;;;;;5104799;28;20081;-66
2021/09/25 04:53:36;;;;;;;52.58;7.63;;;;;;;;;;5101267;28;20090;-66
2021/09/25 04:56:03;;;;;;;53.40;7.20;;;;;;;;;;5102591;28;20050;-67
2021/09/25 04:58:30;;;;;;;54.63;6.53;;;;;;;;;;5102117;27;20478;-67
2021/09/25 05:00:56;;;;;;;45.55;7.00;;;;;;;;;;5101752;28;20139;-66
2021/09/25 05:03:23;;;;;;;54.58;6.70;;;;;;;;;;5097920;28;20039;-66
2021/09/25 05:05:50;;;;;;;55.55;7.25;;;;;;;;;;5104093;27;20043;-67
2021/09/25 05:08:17;;;;;;;47.03;6.10;;;;;;;;;;5100250;28;20123;-66
2021/09/25 05:10:43;;;;;;;45.55;5.47;;;;;;;;;;5100460;28;20538;-67
2021/09/25 05:13:10;;;;;;;39.45;5.88;;;;;;;;;;5101509;28;20135;-67
2021/09/25 05:15:37;;;;;;;45.72;6.68;;;;;;;;;;5101610;27;20204;-67
2021/09/25 05:18:03;;;;;;;42.83;6.25;;;;;;;;;;5101596;27;20127;-66
2021/09/25 05:20:30;;;;;;;38.47;6.33;;;;;;;;;;5100520;28;20092;-67
2021/09/25 05:22:56;;;;;;;40.05;6.68;;;;;;;;;;5099775;27;20131;-67
2021/09/25 05:25:23;;;;;;;50.42;6.55;;;;;;;;;;5101276;28;20047;-67
2021/09/25 05:27:50;;;;;;;36.50;5.60;;;;;;;;;;5099148;27;20067;-67
2021/09/25 05:30:17;;;;;;;40.67;5.32;;;;;;;;;;5103199;28;20606;-66
2021/09/25 05:32:43;;;;;;;36.95;6.22;;;;;;;;;;5105237;27;20079;-66
2021/09/25 05:35:10;;;;;;;53.78;6.25;;;;;;;;;;5095108;28;20044;-66
2021/09/25 05:37:36;;;;;;;41.35;6.20;;;;;;;;;;5097875;28;20414;-66
2021/09/25 05:40:03;;;;;;;40.67;6.32;;;;;;;;;;5099595;27;20074;-66
2021/09/25 05:42:30;;;;;;;36.70;6.53;;;;;;;;;;5098494;28;20097;-66
2021/09/25 05:44:57;;;;;;;39.63;5.70;;;;;;;;;;5098849;28;20486;-66
2021/09/25 05:47:24;;;;;;;37.33;5.32;;;;;;;;;;5095397;27;20075;-66
2021/09/25 05:49:51;;;;;;;42.70;5.55;;;;;;;;;;5095103;28;20494;-66
2021/09/25 05:52:17;;;;;;;44.37;6.17;;;;;;;;;;5094972;28;20047;-66
2021/09/25 05:54:44;;;;;;;44.85;6.53;;;;;;;;;;5098708;27;20371;-67
2021/09/25 05:57:11;;;;;;;42.65;5.95;;;;;;;;;;5104288;28;20087;-66
2021/09/25 05:59:37;;;;;;;33.40;5.30;;;;;;;;;;5098110;27;20119;-66
2021/09/25 06:02:04;;;;;;;45.22;5.82;;;;;;;;;;5105914;28;20372;-66
2021/09/25 06:04:33;;;;;;;37.92;6.38;;;;;;;;;;5102154;27;20121;-67
2021/09/25 06:07:00;;;;;;;37.03;6.05;;;;;;;;;;5101686;28;20051;-66
2021/09/25 06:09:26;;;;;;;37.08;5.38;;;;;;;;;;5101432;28;20077;-66
2021/09/25 06:11:53;;;;;;;35.00;6.13;;;;;;;;;;5101179;28;20130;-66
2021/09/25 06:14:20;;;;;;;42.70;5.78;;;;;;;;;;5100972;28;20087;-66
2021/09/25 06:16:47;;;;;;;39.10;5.97;;;;;;;;;;5101007;28;20051;-66
2021/09/25 06:19:15;;;;;;;37.90;6.03;;;;;;;;;;5099296;28;20044;-67
2021/09/25 06:21:42;;;;;;;37.67;5.78;;;;;;;;;;5098427;28;20093;-66
2021/09/25 06:24:08;;;;;;;32.00;5.00;;;;;;;;;;5100760;28;20089;-66
2021/09/25 06:26:35;;;;;;;34.08;5.63;;;;;;;;;;5097402;28;20043;-66
2021/09/25 06:29:02;;;;;;;50.33;6.70;;;;;;;;;;5106559;28;20430;-66
2021/09/25 06:31:28;;;;;;;34.80;5.53;;;;;;;;;;5101151;27;20074;-67
2021/09/25 06:33:56;;;;;;;36.22;5.80;;;;;;;;;;5097995;28;20127;-66
2021/09/25 06:36:23;;;;;;;44.38;5.43;;;;;;;;;;5102725;27;20139;-66
2021/09/25 06:38:49;;;;;;;42.90;6.72;;;;;;;;;;5100259;28;20075;-66
2021/09/25 06:41:17;;;;;;;40.55;6.40;;;;;;;;;;5098507;28;20079;-66
2021/09/25 06:43:45;;;;;;;36.08;5.57;;;;;;;;;;5100706;27;20460;-66
2021/09/25 06:46:12;;;;;;;39.13;5.38;;;;;;;;;;5097469;28;20056;-66
2021/09/25 06:48:42;;;;;;;40.78;5.28;;;;;;;;;;5097136;28;20676;-66
2021/09/25 06:51:09;;;;;;;43.58;6.63;;;;;;;;;;5103752;28;20130;-66
2021/09/25 06:53:36;;;;;;;37.25;5.18;;;;;;;;;;5098679;28;20044;-66
2021/09/25 06:56:04;;;;;;;;;;;;;;;;;;5098720;28;20131;-65
2021/09/25 06:58:30;;;;;;;39.92;5.93;;;;;;;;;;5097686;28;20014;-66
2021/09/25 07:00:57;;;;;;;33.55;5.88;;;;;;;;;;5081112;28;20127;-65
2021/09/25 07:03:23;;;;;;;43.53;5.75;;;;;;;;;;5098430;28;20046;-66
2021/09/25 07:05:50;;;;;;;40.13;6.32;;;;;;;;;;5087480;28;20106;-63
2021/09/25 07:08:17;;;;;;;33.97;5.22;;;;;;;;;;5060929;28;20159;-63
2021/09/25 07:10:43;;;;;;;34.03;5.80;;;;;;;;;;5062569;28;20171;-63
2021/09/25 07:13:10;;;;;;;41.77;4.67;;;;;;;;;;5061708;28;20140;-63
2021/09/25 07:15:37;;;;;;;27.13;4.82;;;;;;;;;;5061373;28;20079;-63
2021/09/25 07:18:03;;;;;;;27.95;5.53;;;;;;;;;;5048178;28;20424;-63
2021/09/25 07:20:30;;;;;;;28.92;5.05;;;;;;;;;;5059977;28;20072;-63
2021/09/25 07:22:56;;;;;;;32.67;4.88;;;;;;;;;;5060753;28;20106;-63
2021/09/25 07:25:23;;;;;;;31.60;4.60;;;;;;;;;;5061473;28;20079;-63
2021/09/25 07:27:50;;;;;;;29.98;4.93;;;;;;;;;;5065636;28;20565;-63
2021/09/25 07:30:17;;;;;;;34.67;5.57;;;;;;;;;;5045915;28;20123;-63
2021/09/25 07:32:44;;;;;;;27.77;5.50;;;;;;;;;;5059524;28;20395;-63
2021/09/25 07:35:11;;;;;;;30.10;4.70;;;;;;;;;;5062154;28;20044;-63
2021/09/25 07:37:38;;;;;;;31.38;4.78;;;;;;;;;;5058969;28;20136;-63
2021/09/25 07:40:05;;;;;;;24.67;5.05;;;;;;;;;;5059651;28;20132;-63
2021/09/25 07:42:31;;;;;;;30.93;4.97;;;;;;;;;;5059565;28;20493;-63
2021/09/25 07:44:58;;;;;;;24.90;4.80;;;;;;;;;;5059983;28;20854;-63
2021/09/25 07:47:26;;;;;;;44.65;5.90;;;;;;;;;;5060060;28;20506;-62
2021/09/25 07:49:52;;;;;;;30.42;5.10;;;;;;;;;;5060505;28;20574;-63
2021/09/25 07:52:19;;;;;;;33.75;4.68;;;;;;;;;;5063641;28;20576;-63
2021/09/25 07:54:45;;;;;;;33.13;6.05;;;;;;;;;;5058908;28;20080;-63
2021/09/25 07:57:12;;;;;;;34.40;4.80;;;;;;;;;;5061859;28;20096;-62
2021/09/25 07:59:38;;;;;;;29.05;4.72;;;;;;;;;;5058771;28;20132;-63
2021/09/25 08:02:05;;;;;;;27.17;4.45;;;;;;;;;;5062671;28;20127;-62
2021/09/25 08:04:32;;;;;;;25.05;4.43;;;;;;;;;;5059696;28;20182;-63
2021/09/25 08:06:58;;;;;;;32.33;4.60;;;;;;;;;;5063817;28;20103;-63
2021/09/25 08:09:25;;;;;;;26.27;4.45;;;;;;;;;;5060865;28;20076;-63
2021/09/25 08:11:52;;;;;;;24.58;4.75;;;;;;;;;;5065260;28;20045;-63
2021/09/25 08:14:18;;;;;;;30.33;4.97;;;;;;;;;;5071782;28;20045;-63
2021/09/25 08:16:46;;;;;;;31.00;4.80;;;;;;;;;;5063418;28;20588;-63
2021/09/25 08:19:13;;;;;;;25.02;4.63;;;;;;;;;;5066162;28;20037;-63
2021/09/25 08:21:39;;;;;;;22.50;3.90;;;;;;;;;;5063992;28;20167;-63
2021/09/25 08:24:06;;;;;;;26.92;4.65;;;;;;;;;;5063264;28;20132;-63
2021/09/25 08:26:32;;;;;;;24.92;4.57;;;;;;;;;;5063076;28;20508;-63
2021/09/25 08:28:59;;;;;;;23.38;3.47;;;;;;;;;;5064192;28;20516;-63
2021/09/25 08:31:26;;;;;;;21.08;3.75;;;;;;;;;;5065149;28;20052;-63
2021/09/25 08:33:53;;;;;;;18.27;3.78;;;;;;;;;;5066269;28;20051;-63
2021/09/25 08:36:19;;;;;;;20.17;3.58;;;;;;;;;;5063130;28;20127;-63
2021/09/25 08:39:04;;;;;;;23.90;3.60;;;;;;;;;;5065474;28;20575;-63
2021/09/25 08:41:31;;;;;;;20.33;3.75;;;;;;;;;;5066872;28;20444;-63
2021/09/25 08:43:59;;;;;;;15.13;3.08;;;;;;;;;;5063949;28;20079;-63
2021/09/25 08:46:26;;;;;;;19.27;3.47;;;;;;;;;;5061535;28;20091;-63
2021/09/25 08:48:52;;;;;;;18.52;3.35;;;;;;;;;;5061801;28;20056;-63
2021/09/25 08:51:19;;;;;;;20.55;3.60;;;;;;;;;;5061067;28;20072;-63
2021/09/25 08:53:46;;;;;;;15.07;3.15;;;;;;;;;;5067713;28;20520;-63
2021/09/25 08:56:13;;;;;;;15.50;2.88;;;;;;;;;;5060668;28;20144;-63
2021/09/25 08:58:40;;;;;;;;;;;;;;;;;;5064373;28;20800;-63
2021/09/25 09:01:06;;;;;;;11.57;2.65;;;;;;;;;;5068168;28;20007;-63
2021/09/25 09:03:34;;;;;;;11.67;2.97;;;;;;;;;;5064777;28;20051;-63
2021/09/25 09:06:09;;;;;;;14.73;3.15;;;;;;;;;;5066112;28;20911;-63
2021/09/25 09:08:36;;;;;;;15.48;2.80;;;;;;;;;;5067436;28;20132;-63
2021/09/25 09:11:06;;;;;;;12.32;2.85;;;;;;;;;;5061302;28;20087;-63
2021/09/25 09:13:33;;;;;;;12.82;2.63;;;;;;;;;;5060263;28;20135;-63
2021/09/25 09:15:59;;;;;;;;;;;;;;;;;;5058246;28;20064;-63
2021/09/25 09:18:26;;;;;;;12.02;2.25;;;;;;;;;;5069408;28;20299;-63
2021/09/25 09:21:00;;;;;;;10.18;2.47;;;;;;;;;;5059837;28;20515;-63
2021/09/25 09:23:30;;;;;;;12.65;2.40;;;;;;;;;;5063605;28;20089;-63
2021/09/25 09:25:56;;;;;;;11.52;2.30;;;;;;;;;;5064593;28;20127;-64
2021/09/25 09:28:24;;;;;;;7.97;2.37;;;;;;;;;;5061906;28;20076;-63
2021/09/25 09:30:52;;;;;;;6.82;2.33;;;;;;;;;;5061097;28;20139;-63
2021/09/25 09:33:29;;;;;;;7.47;2.15;;;;;;;;;;5062541;28;20045;-64
2021/09/25 09:36:14;;;;;;;8.02;1.95;;;;;;;;;;5063584;28;20538;-63
2021/09/25 09:38:41;;;;;;;8.85;1.70;;;;;;;;;;5066720;28;20123;-63
2021/09/25 09:41:11;;;;;;;9.88;2.00;;;;;;;;;;5059197;28;20137;-63
2021/09/25 09:43:37;;;;;;;9.43;2.00;;;;;;;;;;5061276;28;20131;-63
2021/09/25 09:46:04;;;;;;;7.60;1.83;;;;;;;;;;5063896;28;20159;-63
2021/09/25 09:48:30;;;;;;;10.23;1.63;;;;;;;;;;5061095;28;20045;-63
2021/09/25 09:50:57;;;;;;;8.10;1.55;;;;;;;;;;5063848;28;20123;-63
2021/09/25 09:53:24;;;;;;;9.57;1.80;;;;;;;;;;5059999;28;20591;-63
2021/09/25 09:55:50;;;;;;;5.75;1.60;;;;;;;;;;5060233;28;20076;-64
2021/09/25 09:58:17;;;;;;;7.57;1.67;;;;;;;;;;5063402;28;20063;-63
2021/09/25 10:00:43;;;;;;;14.48;2.15;;;;;;;;;;5062857;28;20068;-63
2021/09/25 10:03:11;;;;;;;5.77;1.50;;;;;;;;;;5062131;28;20051;-63
2021/09/25 10:05:40;;;;;;;6.07;1.55;;;;;;;;;;5056647;28;20045;-63
2021/09/25 10:08:07;;;;;;;9.98;1.50;;;;;;;;;;5061968;28;20095;-63
2021/09/25 10:10:35;;;;;;;9.52;2.10;;;;;;;;;;5059500;28;20074;-64
2021/09/25 10:13:01;;;;;;;;;;;;;;;;;;5058938;28;20088;-63
2021/09/25 10:15:28;;;;;;;7.18;1.75;;;;;;;;;;5065115;28;20376;-63
2021/09/25 10:17:54;;;;;;;5.97;1.30;;;;;;;;;;5060058;28;20127;-63
2021/09/25 10:20:21;;;;;;;6.03;1.42;;;;;;;;;;5058878;28;20379;-63
2021/09/25 10:22:47;;;;;;;6.28;1.48;;;;;;;;;;5063666;28;20472;-63
2021/09/25 10:25:16;;;;;;;5.57;1.50;;;;;;;;;;5054636;28;20131;-63
2021/09/25 10:27:44;;;;;;;6.72;1.52;;;;;;;;;;5061766;28;20057;-64
2021/09/25 10:30:12;;;;;;;4.13;1.30;;;;;;;;;;5056153;28;20055;-63
2021/09/25 10:32:51;;;;;;;8.32;1.98;;;;;;;;;;5067377;28;20127;-63
2021/09/25 10:35:18;;;;;;;5.72;1.27;;;;;;;;;;5060183;28;20504;-64
2021/09/25 10:37:46;;;;;;;4.88;1.38;;;;;;;;;;5061763;28;20127;-64
2021/09/25 10:40:35;;;;;;;4.55;1.50;;;;;;;;;;5057796;28;20179;-63
2021/09/25 10:43:14;;;;;;;4.93;1.23;;;;;;;;;;5060263;28;20640;-63
2021/09/25 10:45:41;;;;;;;7.57;1.38;;;;;;;;;;5055385;28;20080;-63
2021/09/25 10:48:14;;;;;;;6.07;0.93;;;;;;;;;;5060738;28;20053;-63
2021/09/25 10:50:54;;;;;;;4.93;1.30;;;;;;;;;;5056372;28;20080;-63
2021/09/25 10:53:23;;;;;;;6.30;1.25;;;;;;;;;;5063101;28;20183;-63
2021/09/25 10:55:50;;;;;;;3.45;1.05;;;;;;;;;;5056175;28;20127;-63
2021/09/25 10:58:22;;;;;;;3.42;1.00;;;;;;;;;;5056338;28;20056;-63
2021/09/25 11:00:49;;;;;;;6.57;1.38;;;;;;;;;;5058220;28;20049;-64
2021/09/25 11:03:34;;;;;;;3.05;0.63;;;;;;;;;;5061153;28;20127;-64
2021/09/25 11:06:04;;;;;;;2.95;0.77;;;;;;;;;;5063338;28;20057;-63
2021/09/25 11:08:31;;;;;;;4.70;0.90;;;;;;;;;;5061486;28;20132;-63
2021/09/25 11:10:58;;;;;;;;;;;;;;;;;;5063751;28;20075;-63
2021/09/25 11:13:43;;;;;;;4.32;1.17;;;;;;;;;;5063774;28;19971;-64
2021/09/25 11:16:09;;;;;;;4.22;1.10;;;;;;;;;;5060281;28;20083;-63
2021/09/25 11:18:49;;;;;;;3.13;0.82;;;;;;;;;;5046587;28;20080;-63
2021/09/25 11:21:15;;;;;;;4.68;1.10;;;;;;;;;;5059821;28;20052;-63
2021/09/25 11:23:45;;;;;;;6.33;1.23;;;;;;;;;;5064235;28;20135;-63
2021/09/25 11:26:14;;;;;;;1.88;0.82;;;;;;;;;;5066070;28;20065;-63
2021/09/25 11:28:43;;;;;;;3.10;0.90;;;;;;;;;;5065972;28;20048;-63
2021/09/25 11:31:10;;;;;;;3.90;0.93;;;;;;;;;;5061656;28;20678;-63
2021/09/25 11:33:37;;;;;;;3.35;1.30;;;;;;;;;;5063659;28;20571;-63
2021/09/25 11:36:07;;;;;;;3.33;0.85;;;;;;;;;;5063332;28;20155;-63
2021/09/25 11:38:42;;;;;;;3.08;0.80;;;;;;;;;;5058501;28;20048;-64
2021/09/25 11:41:12;;;;;;;3.53;0.90;;;;;;;;;;5063173;28;20063;-64
2021/09/25 11:43:39;;;;;;;3.35;0.70;;;;;;;;;;5067195;28;20134;-63
2021/09/25 11:46:06;;;;;;;7.85;1.00;;;;;;;;;;5061915;28;20491;-63
2021/09/25 11:48:34;;;;;;;2.15;0.95;;;;;;;;;;5066131;28;20056;-63
2021/09/25 11:51:04;;;;;;;3.70;1.00;;;;;;;;;;5066442;28;20495;-64
2021/09/25 11:53:31;;;;;;;1.65;0.63;;;;;;;;;;5065304;28;20500;-64
2021/09/25 11:55:59;;;;;;;6.38;1.08;;;;;;;;;;5064278;28;20113;-64
2021/09/25 11:58:26;;;;;;;2.70;0.73;;;;;;;;;;5068147;28;20095;-63
2021/09/25 12:00:57;;;;;;;4.17;1.50;;;;;;;;;;5066955;28;20049;-64
2021/09/25 12:03:26;;;;;;;2.08;0.88;;;;;;;;;;5065177;28;20048;-63
2021/09/25 12:05:54;;;;;;;2.50;0.68;;;;;;;;;;5062760;28;20048;-64
2021/09/25 12:08:23;;;;;;;5.43;1.00;;;;;;;;;;5063421;28;20064;-63
2021/09/25 12:10:51;;;;;;;3.55;0.98;;;;;;;;;;4180699;28;10000989;-64
2021/09/25 12:13:32;;;;;;;2.13;0.77;;;;;;;;;;5063196;28;20517;-64
2021/09/25 12:16:07;;;;;;;1.67;0.60;;;;;;;;;;5060063;28;20415;-63
2021/09/25 12:18:37;;;;;;;2.55;0.90;;;;;;;;;;5061208;28;20052;-63
2021/09/25 12:21:11;;;;;;;1.42;0.52;;;;;;;;;;5060383;28;20079;-64
2021/09/25 12:23:41;;;;;;;6.72;1.08;;;;;;;;;;5060817;28;20500;-63
2021/09/25 12:26:09;;;;;;;3.22;1.00;;;;;;;;;;5065614;28;20045;-63
2021/09/25 12:28:39;;;;;;;2.72;0.70;;;;;;;;;;5068464;28;20144;-63
2021/09/25 12:31:07;;;;;;;2.42;0.73;;;;;;;;;;5058278;28;20055;-63
2021/09/25 12:33:45;;;;;;;3.83;1.00;;;;;;;;;;5062822;28;20131;-63
2021/09/25 12:36:14;;;;;;;4.55;1.25;;;;;;;;;;5063272;28;20076;-63
2021/09/25 12:38:43;;;;;;;7.32;0.80;;;;;;;;;;5063603;28;20572;-63
2021/09/25 12:41:11;;;;;;;2.65;0.85;;;;;;;;;;5063868;28;20071;-63
2021/09/25 12:43:43;;;;;;;5.18;1.02;;;;;;;;;;5057280;28;20573;-63
2021/09/25 12:46:14;;;;;;;3.83;0.70;;;;;;;;;;5064525;28;20168;-63
2021/09/25 12:49:00;;;;;;;3.15;0.93;;;;;;;;;;5057993;28;20515;-63
2021/09/25 12:51:28;;;;;;;4.45;1.00;;;;;;;;;;5063191;28;20128;-63
2021/09/25 12:53:55;;;;;;;4.35;0.75;;;;;;;;;;5059466;28;20504;-63
2021/09/25 12:56:22;;;;;;;5.78;1.30;;;;;;;;;;5061617;28;20124;-63
2021/09/25 12:58:51;;;;;;;4.10;0.82;;;;;;;;;;5057718;28;20140;-64
2021/09/25 13:01:28;;;;;;;3.38;0.80;;;;;;;;;;5059706;28;20131;-63
2021/09/25 13:03:55;;;;;;;3.10;1.20;;;;;;;;;;5059256;28;20052;-63
2021/09/25 13:06:23;;;;;;;3.30;0.80;;;;;;;;;;5055396;28;20060;-63
2021/09/25 13:08:56;;;;;;;1.83;0.82;;;;;;;;;;5057158;28;20131;-63
2021/09/25 13:11:28;;;;;;;2.60;0.90;;;;;;;;;;5060444;28;20040;-63
2021/09/25 13:14:14;;;;;;;6.15;1.05;;;;;;;;;;5059922;28;20131;-63
2021/09/25 13:16:42;;;;;;;4.47;1.15;;;;;;;;;;5056099;28;20068;-63
2021/09/25 13:19:09;;;;;;;6.55;1.00;;;;;;;;;;5062685;28;20492;-63
2021/09/25 13:21:37;;;;;;;6.03;1.83;;;;;;;;;;5056700;28;20135;-63
2021/09/25 13:24:08;;;;;;;2.80;0.88;;;;;;;;;;5058424;28;20139;-63
2021/09/25 13:26:35;;;;;;;2.47;0.90;;;;;;;;;;5059375;28;20128;-63
2021/09/25 13:29:02;;;;;;;4.00;0.75;;;;;;;;;;5061404;28;20079;-63
2021/09/25 13:31:29;;;;;;;;;;;;;;;;;;5063994;28;20128;-63
2021/09/25 13:33:55;;;;;;;3.78;0.75;;;;;;;;;;5056653;28;19920;-63
2021/09/25 13:36:22;;;;;;;3.08;0.55;;;;;;;;;;5058450;28;20168;-63
2021/09/25 13:38:49;;;;;;;3.05;0.90;;;;;;;;;;5063214;28;20464;-63
2021/09/25 13:41:16;;;;;;;3.03;0.50;;;;;;;;;;5062162;28;20124;-63
2021/09/25 13:43:43;;;;;;;1.52;0.60;;;;;;;;;;5058422;28;20485;-63
2021/09/25 13:46:10;;;;;;;2.42;0.93;;;;;;;;;;5061883;28;20595;-63
2021/09/25 13:48:36;;;;;;;5.35;1.33;;;;;;;;;;5063961;28;20060;-63
2021/09/25 13:51:03;;;;;;;2.42;0.70;;;;;;;;;;5062022;28;20090;-63
2021/09/25 13:53:30;;;;;;;6.27;0.90;;;;;;;;;;5059435;28;20508;-63
2021/09/25 13:55:57;;;;;;;3.97;0.77;;;;;;;;;;5055302;28;20128;-63
2021/09/25 13:58:23;;;;;;;3.30;0.90;;;;;;;;;;5062308;28;20094;-63
2021/09/25 14:00:49;;;;;;;3.20;0.65;;;;;;;;;;5061460;28;20055;-63
2021/09/25 14:03:16;;;;;;;2.38;0.47;;;;;;;;;;5055416;28;20041;-63
2021/09/25 14:05:43;;;;;;;2.65;0.70;;;;;;;;;;5059540;28;20128;-63
2021/09/25 14:08:11;;;;;;;3.60;0.75;;;;;;;;;;5057539;28;20083;-63
2021/09/25 14:10:40;;;;;;;2.65;0.80;;;;;;;;;;5055933;28;20080;-63
2021/09/25 14:13:07;;;;;;;4.43;1.13;;;;;;;;;;5056567;28;20076;-63
2021/09/25 14:15:34;;;;;;;;;;;;;;;;;;5059896;28;20276;-65
2021/09/25 14:18:00;;;;;;;2.03;0.50;;;;;;;;;;5059993;28;19921;-65
2021/09/25 14:20:27;;;;;;;7.53;0.80;;;;;;;;;;5056901;28;20084;-65
2021/09/25 14:22:53;;;;;;;2.00;0.60;;;;;;;;;;5062396;28;20597;-65
2021/09/25 14:25:20;;;;;;;1.52;0.70;;;;;;;;;;5063027;28;20084;-65
2021/09/25 14:27:46;;;;;;;2.70;0.60;;;;;;;;;;5055348;28;20120;-65
2021/09/25 14:30:13;;;;;;;6.13;1.20;;;;;;;;;;5063867;28;20072;-65
2021/09/25 14:32:39;;;;;;;3.58;0.73;;;;;;;;;;5059989;28;20127;-65
2021/09/25 14:35:07;;;;;;;2.55;0.90;;;;;;;;;;5057114;28;20045;-66
2021/09/25 14:37:34;;;;;;;;;;;;;;;;;;5061881;28;20091;-65